Time;durP1;ratioP1;P1;durP2;ratioP2;P2;SDS_P1;SDS_P2;PMS_P1;PMS_P2;Temp;Humidity;BMP_temperature;BMP_pressure;BME280_temperature;BME280_humidity;BME280_pressure;Samples;Min_cycle;Max_cycle;Signal;HPM_P1;HPM_P2
2021/01/26 00:00:12;;;;;;;12.23;7.38;;;0.00;99.90;;;;;;5007465;28;20079;-72
2021/01/26 00:02:38;;;;;;;10.43;7.22;;;0.00;99.90;;;;;;5003140;28;20094;-72
2021/01/26 00:05:05;;;;;;;10.60;7.90;;;0.00;99.90;;;;;;4996649;28;20126;-74
2021/01/26 00:07:30;;;;;;;11.68;7.25;;;0.10;99.90;;;;;;4992842;28;20185;-72
2021/01/26 00:09:56;;;;;;;11.00;7.65;;;0.00;99.90;;;;;;4992036;28;20509;-72
2021/01/26 00:12:21;;;;;;;10.38;7.18;;;0.00;99.90;;;;;;4997936;28;20596;-72
2021/01/26 00:14:47;;;;;;;10.02;7.15;;;0.00;99.90;;;;;;5006654;28;20094;-74
2021/01/26 00:17:12;;;;;;;9.52;6.60;;;0.10;99.90;;;;;;5009588;28;20078;-72
2021/01/26 00:19:38;;;;;;;10.75;7.35;;;0.00;99.90;;;;;;5002145;28;20082;-73
2021/01/26 00:22:03;;;;;;;11.38;7.35;;;0.00;99.90;;;;;;4994502;28;20415;-73
2021/01/26 00:24:29;;;;;;;9.13;6.90;;;-0.10;99.90;;;;;;5021300;28;20109;-73
2021/01/26 00:26:55;;;;;;;11.98;6.85;;;-0.10;99.90;;;;;;5001546;28;20089;-73
2021/01/26 00:29:20;;;;;;;10.25;7.00;;;0.00;99.90;;;;;;4998066;28;20129;-73
2021/01/26 00:31:46;;;;;;;9.82;7.15;;;-0.10;99.90;;;;;;5003744;28;20132;-73
2021/01/26 00:34:11;;;;;;;10.55;6.75;;;0.00;99.90;;;;;;4993118;28;20079;-73
2021/01/26 00:36:37;;;;;;;8.40;6.25;;;0.00;99.90;;;;;;4990674;28;20532;-74
2021/01/26 00:39:04;;;;;;;9.15;6.72;;;0.00;99.90;;;;;;4989097;28;20573;-74
2021/01/26 00:41:30;;;;;;;9.27;7.13;;;-0.10;99.90;;;;;;4990650;28;20078;-73
2021/01/26 00:43:55;;;;;;;9.30;6.30;;;0.00;99.90;;;;;;5007762;28;20122;-72
2021/01/26 00:46:21;;;;;;;12.10;7.05;;;-0.10;99.90;;;;;;5007920;28;20113;-72
2021/01/26 00:48:46;;;;;;;8.55;6.05;;;-0.10;99.90;;;;;;4994168;28;20070;-73
2021/01/26 00:51:12;;;;;;;9.15;6.72;;;-0.10;99.90;;;;;;4993836;28;20082;-72
2021/01/26 00:53:38;;;;;;;9.70;7.00;;;-0.10;99.90;;;;;;5001545;28;20085;-73
2021/01/26 00:56:04;;;;;;;9.55;7.03;;;-0.20;99.90;;;;;;5008697;28;20469;-73
2021/01/26 00:58:29;;;;;;;10.45;7.65;;;-0.10;99.90;;;;;;5009764;28;20598;-72
2021/01/26 01:00:55;;;;;;;9.65;6.75;;;0.00;99.90;;;;;;5009475;28;20082;-73
2021/01/26 01:03:21;;;;;;;8.98;6.65;;;0.00;99.90;;;;;;4991941;28;20094;-73
2021/01/26 01:05:46;;;;;;;8.75;6.85;;;-0.10;99.90;;;;;;4989041;28;20198;-73
2021/01/26 01:08:12;;;;;;;10.45;7.07;;;-0.10;99.90;;;;;;4989669;28;20142;-73
2021/01/26 01:10:41;;;;;;;9.65;6.90;;;-0.10;99.90;;;;;;4990055;28;20067;-75
2021/01/26 01:13:09;;;;;;;9.23;7.35;;;-0.10;99.90;;;;;;4996804;28;20213;-73
2021/01/26 01:15:35;;;;;;;8.95;6.93;;;-0.10;99.90;;;;;;5008836;28;20102;-73
2021/01/26 01:18:01;;;;;;;9.00;6.80;;;-0.10;99.90;;;;;;5007820;28;20084;-73
2021/01/26 01:20:27;;;;;;;9.77;7.47;;;-0.10;99.90;;;;;;5009256;28;20071;-74
2021/01/26 01:22:53;;;;;;;10.75;7.75;;;-0.10;99.90;;;;;;5009223;28;20078;-73
2021/01/26 01:25:19;;;;;;;9.90;7.40;;;-0.10;99.90;;;;;;5008701;28;20705;-74
2021/01/26 01:27:46;;;;;;;11.00;7.68;;;-0.10;99.90;;;;;;5009157;28;20100;-73
2021/01/26 01:30:15;;;;;;;11.63;7.85;;;-0.20;99.90;;;;;;5009103;28;20136;-73
2021/01/26 01:32:40;;;;;;;9.02;6.95;;;-0.20;99.90;;;;;;5009394;28;20132;-74
2021/01/26 01:35:07;;;;;;;10.73;7.32;;;-0.10;99.90;;;;;;5008514;28;20844;-74
2021/01/26 01:37:32;;;;;;;9.82;7.22;;;0.00;99.90;;;;;;5009211;28;20075;-73
2021/01/26 01:39:58;;;;;;;10.10;7.18;;;-0.10;99.90;;;;;;5008894;28;20082;-74
2021/01/26 01:42:23;;;;;;;7.68;6.00;;;0.00;99.90;;;;;;5006320;28;20559;-73
2021/01/26 01:44:49;;;;;;;9.07;6.07;;;0.00;99.90;;;;;;5006899;28;20778;-73
2021/01/26 01:47:24;;;;;;;8.80;5.75;;;0.00;99.90;;;;;;5008574;28;20197;-73
2021/01/26 01:49:50;;;;;;;7.80;5.82;;;0.00;99.90;;;;;;5008450;28;20084;-73
2021/01/26 01:52:21;;;;;;;6.78;5.35;;;-0.10;99.90;;;;;;5008805;28;20074;-74
2021/01/26 01:54:52;;;;;;;10.65;7.25;;;-0.10;99.90;;;;;;5007489;28;20596;-74
2021/01/26 01:57:32;;;;;;;8.25;5.55;;;-0.20;99.90;;;;;;5008651;28;20085;-73
2021/01/26 02:00:04;;;;;;;9.55;5.93;;;-0.20;99.90;;;;;;5008258;28;20086;-73
2021/01/26 02:02:29;;;;;;;8.00;5.07;;;-0.20;99.90;;;;;;5007464;28;20121;-73
2021/01/26 02:04:59;;;;;;;7.90;5.90;;;-0.10;99.90;;;;;;5007824;28;20113;-73
2021/01/26 02:07:26;;;;;;;8.77;5.90;;;-0.20;99.90;;;;;;5007055;28;20078;-74
2021/01/26 02:09:53;;;;;;;6.97;5.57;;;-0.10;99.90;;;;;;5008308;28;20077;-73
2021/01/26 02:12:18;;;;;;;8.27;6.50;;;-0.10;99.90;;;;;;5008512;28;20066;-73
2021/01/26 02:14:50;;;;;;;7.82;6.05;;;-0.10;99.90;;;;;;5006102;28;20528;-74
2021/01/26 02:17:33;;;;;;;8.85;6.15;;;-0.10;99.90;;;;;;5006930;28;20074;-73
2021/01/26 02:20:23;;;;;;;8.18;6.00;;;-0.10;99.90;;;;;;5008235;28;20535;-73
2021/01/26 02:23:20;;;;;;;8.48;6.10;;;-0.10;99.90;;;;;;5006560;28;20078;-74
2021/01/26 02:26:03;;;;;;;7.65;5.72;;;-0.10;99.90;;;;;;5005960;28;20189;-73
2021/01/26 02:28:52;;;;;;;9.52;7.05;;;-0.10;99.90;;;;;;5008299;28;20071;-73
2021/01/26 02:31:55;;;;;;;8.77;6.22;;;-0.10;99.90;;;;;;4988667;28;20078;-73
2021/01/26 02:34:52;;;;;;;8.70;6.65;;;-0.10;99.90;;;;;;4986296;28;20077;-73
2021/01/26 02:37:47;;;;;;;9.80;7.00;;;-0.10;99.90;;;;;;4988282;28;20443;-73
2021/01/26 02:40:22;;;;;;;;;;;-0.10;99.90;;;;;;4988768;28;20071;-74
2021/01/26 02:43:04;;;;;;;9.82;6.57;;;-0.10;99.90;;;;;;4984426;28;19957;-73
2021/01/26 02:45:41;;;;;;;8.98;7.03;;;-0.20;99.90;;;;;;4987591;28;20117;-74
2021/01/26 02:48:27;;;;;;;9.65;6.50;;;-0.20;99.90;;;;;;4988339;28;20117;-73
2021/01/26 02:51:13;;;;;;;9.98;7.65;;;-0.20;99.90;;;;;;4988183;28;20439;-74
2021/01/26 02:53:55;;;;;;;10.15;7.10;;;-0.30;99.90;;;;;;4987770;28;20489;-74
2021/01/26 02:56:37;;;;;;;12.80;8.43;;;-0.30;99.90;;;;;;4986676;28;20141;-73
2021/01/26 02:59:15;;;;;;;10.55;7.40;;;-0.30;99.90;;;;;;5004628;28;20090;-73
2021/01/26 03:01:48;;;;;;;11.32;7.63;;;-0.40;99.90;;;;;;5007335;28;20110;-73
2021/01/26 03:04:22;;;;;;;13.02;8.63;;;-0.40;99.90;;;;;;5006878;28;20577;-73
2021/01/26 03:06:51;;;;;;;10.45;7.95;;;-0.40;99.90;;;;;;5008034;28;20070;-74
2021/01/26 03:09:30;;;;;;;11.30;7.35;;;-0.40;99.90;;;;;;5007461;28;20164;-73
2021/01/26 03:12:12;;;;;;;10.32;7.25;;;-0.40;99.90;;;;;;5007400;28;20094;-72
2021/01/26 03:14:48;;;;;;;10.95;7.78;;;-0.40;99.90;;;;;;5005565;28;20136;-73
2021/01/26 03:17:29;;;;;;;10.77;7.07;;;-0.40;99.90;;;;;;5007741;28;20082;-74
2021/01/26 03:19:57;;;;;;;13.35;7.85;;;-0.40;99.90;;;;;;5007776;28;20075;-74
2021/01/26 03:22:26;;;;;;;9.75;7.32;;;-0.50;99.90;;;;;;5007336;28;20085;-74
2021/01/26 03:24:55;;;;;;;11.23;7.88;;;-0.60;99.90;;;;;;5006793;28;20971;-73
2021/01/26 03:27:32;;;;;;;13.02;7.57;;;-0.50;99.90;;;;;;5007266;28;20067;-74
2021/01/26 03:29:59;;;;;;;14.70;8.57;;;-0.60;99.90;;;;;;5009328;28;20546;-74
2021/01/26 03:32:33;;;;;;;12.68;7.78;;;-0.60;99.90;;;;;;5010899;28;20073;-73
2021/01/26 03:35:00;;;;;;;11.27;7.65;;;-0.50;99.90;;;;;;5009988;28;20169;-74
2021/01/26 03:37:26;;;;;;;12.57;8.02;;;-0.60;99.90;;;;;;5010273;28;20599;-74
2021/01/26 03:39:56;;;;;;;11.40;7.72;;;-0.50;99.90;;;;;;5010742;28;20177;-75
2021/01/26 03:42:24;;;;;;;12.25;7.32;;;-0.50;99.90;;;;;;5011012;28;20070;-74
2021/01/26 03:44:50;;;;;;;11.27;7.55;;;-0.50;99.90;;;;;;5008225;28;20106;-75
2021/01/26 03:47:43;;;;;;;12.25;7.93;;;-0.50;99.90;;;;;;5008926;28;20132;-74
2021/01/26 03:50:21;;;;;;;11.35;7.88;;;-0.60;99.90;;;;;;4982627;28;20498;-74
2021/01/26 03:53:15;;;;;;;12.27;6.78;;;-0.50;99.90;;;;;;5002354;28;20074;-74
2021/01/26 03:56:12;;;;;;;11.52;7.75;;;-0.40;99.90;;;;;;5008709;28;20129;-74
2021/01/26 03:59:03;;;;;;;11.05;7.55;;;-0.50;99.90;;;;;;5010001;28;20162;-75
2021/01/26 04:01:37;;;;;;;11.85;7.35;;;-0.40;99.90;;;;;;5010529;28;20069;-75
2021/01/26 04:04:20;;;;;;;13.43;7.20;;;-0.20;99.90;;;;;;5009473;28;20105;-74
2021/01/26 04:06:48;;;;;;;11.38;7.35;;;-0.10;99.90;;;;;;5009017;28;20090;-75
2021/01/26 04:09:23;;;;;;;13.60;8.80;;;-0.20;99.90;;;;;;5009669;28;20462;-74
2021/01/26 04:11:58;;;;;;;13.27;8.68;;;-0.10;99.90;;;;;;5010313;28;20090;-74
2021/01/26 04:14:28;;;;;;;;;;;-0.20;99.90;;;;;;5008253;28;20089;-73
2021/01/26 04:17:13;;;;;;;13.00;8.75;;;-0.20;99.90;;;;;;5010140;28;19961;-74
2021/01/26 04:19:47;;;;;;;12.73;7.70;;;-0.30;99.90;;;;;;5010038;28;20074;-75
2021/01/26 04:22:15;;;;;;;11.70;7.88;;;-0.30;99.90;;;;;;5008537;28;20168;-74
2021/01/26 04:24:40;;;;;;;12.73;9.23;;;-0.30;99.90;;;;;;5009057;28;20102;-74
2021/01/26 04:27:18;;;;;;;11.20;7.45;;;-0.30;99.90;;;;;;5009518;28;20074;-74
2021/01/26 04:29:43;;;;;;;11.82;7.93;;;-0.40;99.90;;;;;;5008116;28;20075;-74
2021/01/26 04:32:09;;;;;;;10.27;6.65;;;-0.30;99.90;;;;;;5009844;28;20690;-74
2021/01/26 04:34:35;;;;;;;9.80;6.32;;;-0.30;99.90;;;;;;5006906;28;20094;-73
2021/01/26 04:37:00;;;;;;;9.43;5.93;;;-0.30;99.90;;;;;;5009356;28;20081;-74
2021/01/26 04:39:26;;;;;;;11.80;6.88;;;-0.30;99.90;;;;;;5010005;28;20070;-73
2021/01/26 04:42:00;;;;;;;7.45;5.85;;;-0.30;99.90;;;;;;5009203;28;20073;-73
2021/01/26 04:44:36;;;;;;;8.82;6.20;;;-0.40;99.90;;;;;;5008220;28;20106;-73
2021/01/26 04:47:32;;;;;;;8.63;6.10;;;-0.40;99.90;;;;;;5009950;28;20581;-73
2021/01/26 04:50:00;;;;;;;8.40;5.40;;;-0.50;99.90;;;;;;5006335;28;20070;-74
2021/01/26 04:52:46;;;;;;;7.32;5.68;;;-0.60;99.90;;;;;;5003872;28;20074;-75
2021/01/26 04:55:30;;;;;;;7.63;4.53;;;-0.60;99.90;;;;;;5008594;28;20191;-73
2021/01/26 04:58:13;;;;;;;8.00;5.43;;;-0.60;99.90;;;;;;5009447;28;20106;-75
2021/01/26 05:00:54;;;;;;;6.55;4.40;;;-0.60;99.90;;;;;;5009424;28;20081;-74
2021/01/26 05:03:41;;;;;;;5.93;4.25;;;-0.70;99.90;;;;;;5009566;28;20694;-75
2021/01/26 05:06:10;;;;;;;6.70;4.63;;;-0.70;99.90;;;;;;5008761;28;20223;-73
2021/01/26 05:08:41;;;;;;;6.30;4.38;;;-0.70;99.90;;;;;;5008196;28;20071;-74
2021/01/26 05:11:17;;;;;;;6.47;4.90;;;-0.70;99.90;;;;;;5007442;28;21047;-73
2021/01/26 05:13:48;;;;;;;6.20;4.57;;;-0.70;99.90;;;;;;5007900;28;20518;-74
2021/01/26 05:16:24;;;;;;;7.43;5.03;;;-0.80;99.90;;;;;;5007088;28;20094;-75
2021/01/26 05:19:21;;;;;;;7.63;5.22;;;-0.70;99.90;;;;;;5008797;28;20108;-75
2021/01/26 05:22:03;;;;;;;7.43;4.97;;;-0.60;99.90;;;;;;4999885;28;20201;-73
2021/01/26 05:24:42;;;;;;;10.70;5.00;;;-0.60;99.90;;;;;;5008421;28;20097;-73
2021/01/26 05:27:08;;;;;;;7.90;4.95;;;-0.70;99.90;;;;;;5009508;28;20073;-73
2021/01/26 05:29:35;;;;;;;8.63;4.88;;;-0.60;99.90;;;;;;5001318;28;20074;-73
2021/01/26 05:32:04;;;;;;;8.20;5.65;;;-0.60;99.90;;;;;;4988257;28;20610;-74
2021/01/26 05:34:32;;;;;;;9.95;7.07;;;-0.50;99.90;;;;;;4987078;28;20569;-75
2021/01/26 05:36:59;;;;;;;9.88;6.45;;;-0.50;99.90;;;;;;4989598;28;20085;-73
2021/01/26 05:39:31;;;;;;;10.35;6.20;;;-0.60;99.90;;;;;;5003040;28;20094;-73
2021/01/26 05:41:58;;;;;;;8.95;6.50;;;-0.60;99.90;;;;;;5008787;28;20089;-74
2021/01/26 05:44:24;;;;;;;7.88;5.85;;;-0.60;99.90;;;;;;5008530;28;20562;-74
2021/01/26 05:46:50;;;;;;;10.98;7.15;;;-0.70;99.90;;;;;;5009118;28;20090;-73
2021/01/26 05:49:35;;;;;;;10.45;7.28;;;-0.70;99.90;;;;;;4973745;28;20075;-73
2021/01/26 05:52:02;;;;;;;11.18;7.13;;;-0.70;99.90;;;;;;5000466;28;20079;-73
2021/01/26 05:54:28;;;;;;;10.50;6.22;;;-0.60;99.90;;;;;;5004187;28;20093;-74
2021/01/26 05:56:56;;;;;;;12.23;6.75;;;-0.60;99.90;;;;;;5008029;28;20074;-74
2021/01/26 05:59:32;;;;;;;9.27;6.63;;;-0.70;99.90;;;;;;5007347;28;20094;-73
2021/01/26 06:02:12;;;;;;;8.75;5.75;;;-0.70;99.90;;;;;;5000767;28;20593;-73
2021/01/26 06:04:38;;;;;;;12.38;7.60;;;-0.70;99.90;;;;;;4998439;28;20558;-73
2021/01/26 06:07:15;;;;;;;10.93;6.68;;;-0.70;99.90;;;;;;4991454;28;20078;-73
2021/01/26 06:09:42;;;;;;;8.82;5.80;;;-0.70;99.90;;;;;;5003752;28;20097;-72
2021/01/26 06:12:12;;;;;;;9.45;5.80;;;-0.60;99.90;;;;;;4996327;28;20646;-73
2021/01/26 06:14:40;;;;;;;8.98;6.53;;;-0.70;99.90;;;;;;4996068;28;20121;-73
2021/01/26 06:17:11;;;;;;;10.90;6.03;;;-0.70;99.90;;;;;;4996346;28;20557;-73
2021/01/26 06:19:37;;;;;;;7.38;5.50;;;-0.60;99.90;;;;;;4992458;28;20142;-73
2021/01/26 06:22:03;;;;;;;9.70;6.18;;;-0.60;99.90;;;;;;5003807;28;20125;-73
2021/01/26 06:24:33;;;;;;;8.95;5.53;;;-0.60;99.90;;;;;;5007500;28;20133;-74
2021/01/26 06:27:07;;;;;;;10.05;5.25;;;-0.60;99.90;;;;;;5001690;28;20075;-73
2021/01/26 06:29:45;;;;;;;8.27;5.35;;;-0.60;99.90;;;;;;5002029;28;20126;-73
2021/01/26 06:32:51;;;;;;;7.53;5.47;;;-0.60;99.90;;;;;;5008156;28;20110;-73
2021/01/26 06:35:33;;;;;;;;;;;-0.60;99.90;;;;;;5005299;28;20176;-74
2021/01/26 06:38:33;;;;;;;7.50;5.00;;;-0.50;99.90;;;;;;5004841;28;20009;-73
2021/01/26 06:41:22;;;;;;;8.10;5.45;;;-0.60;99.90;;;;;;4994216;28;20105;-73
2021/01/26 06:44:15;;;;;;;7.78;5.15;;;-0.60;99.90;;;;;;5007355;28;20102;-72
2021/01/26 06:46:44;;;;;;;7.00;4.90;;;-0.60;99.90;;;;;;4995949;28;20870;-75
2021/01/26 06:49:23;;;;;;;9.18;5.43;;;-0.50;99.90;;;;;;5000403;28;20205;-72
2021/01/26 06:51:54;;;;;;;6.82;4.70;;;-0.50;99.90;;;;;;4973396;28;20082;-75
2021/01/26 06:54:44;;;;;;;8.52;5.38;;;-0.60;99.90;;;;;;5000988;28;20078;-73
2021/01/26 06:57:49;;;;;;;7.88;5.30;;;-0.60;99.90;;;;;;4992509;28;20101;-75
2021/01/26 07:00:32;;;;;;;10.85;5.57;;;-0.60;99.90;;;;;;4997602;28;20089;-74
2021/01/26 07:03:13;;;;;;;8.82;6.03;;;-0.60;99.90;;;;;;4989930;28;20071;-74
2021/01/26 07:05:47;;;;;;;9.52;6.03;;;-0.60;99.90;;;;;;4996287;28;20113;-77
2021/01/26 07:08:54;;;;;;;7.50;5.45;;;-0.50;99.90;;;;;;4993987;28;20569;-76
2021/01/26 07:11:26;;;;;;;8.80;5.88;;;-0.60;99.90;;;;;;5008608;28;20173;-74
2021/01/26 07:14:04;;;;;;;11.65;5.28;;;-0.60;99.90;;;;;;4995608;28;20188;-76
2021/01/26 07:16:44;;;;;;;8.95;5.75;;;-0.50;99.90;;;;;;5007618;28;20419;-74
2021/01/26 07:19:36;;;;;;;7.95;5.43;;;-0.50;99.90;;;;;;4995632;28;20079;-75
2021/01/26 07:22:40;;;;;;;7.80;4.95;;;-0.50;99.90;;;;;;4999196;28;20090;-75
2021/01/26 07:25:20;;;;;;;8.10;5.35;;;-0.50;99.90;;;;;;5006726;28;20605;-73
2021/01/26 07:28:07;;;;;;;11.98;5.82;;;-0.40;99.90;;;;;;4998383;28;20082;-73
2021/01/26 07:30:42;;;;;;;9.38;5.32;;;-0.50;99.90;;;;;;4994323;28;20090;-74
2021/01/26 07:33:27;;;;;;;8.25;5.30;;;-0.50;99.90;;;;;;4992380;28;20178;-75
2021/01/26 07:36:00;;;;;;;10.38;6.00;;;-0.50;99.90;;;;;;4989981;28;20087;-73
2021/01/26 07:38:34;;;;;;;9.32;5.78;;;-0.50;99.90;;;;;;4995763;28;20086;-74
2021/01/26 07:41:06;;;;;;;8.55;5.57;;;-0.60;99.90;;;;;;4998394;28;20079;-74
2021/01/26 07:43:46;;;;;;;8.45;5.07;;;-0.70;99.90;;;;;;5006437;28;20564;-74
2021/01/26 07:46:41;;;;;;;9.93;5.63;;;-0.80;99.90;;;;;;4996008;28;20098;-74
2021/01/26 07:49:09;;;;;;;10.77;6.33;;;-0.90;99.90;;;;;;4995694;28;20078;-73
2021/01/26 07:51:40;;;;;;;15.77;9.07;;;-0.80;99.90;;;;;;4994192;28;20113;-75
2021/01/26 07:54:13;;;;;;;14.43;7.93;;;-0.90;99.90;;;;;;4994259;28;20093;-75
2021/01/26 07:56:40;;;;;;;9.13;6.13;;;-1.00;99.90;;;;;;5003050;28;20075;-74
2021/01/26 07:59:17;;;;;;;9.18;6.03;;;-0.90;99.90;;;;;;4971920;28;20909;-76
2021/01/26 08:01:59;;;;;;;9.00;5.22;;;-1.00;99.90;;;;;;4999521;28;21136;-76
2021/01/26 08:04:27;;;;;;;8.13;4.88;;;-1.00;99.90;;;;;;5003196;28;20114;-76
2021/01/26 08:07:02;;;;;;;7.53;4.03;;;-1.00;99.90;;;;;;5005512;28;20074;-77
2021/01/26 08:09:36;;;;;;;6.80;5.20;;;-1.00;99.90;;;;;;5000490;28;20104;-73
2021/01/26 08:12:16;;;;;;;7.43;4.30;;;-1.00;99.90;;;;;;5008966;28;20105;-73
2021/01/26 08:14:54;;;;;;;5.65;3.70;;;-1.00;99.90;;;;;;4995430;28;20097;-72
2021/01/26 08:17:35;;;;;;;7.47;4.65;;;-1.00;99.90;;;;;;4993480;28;20533;-73
2021/01/26 08:20:20;;;;;;;7.35;3.58;;;-1.10;99.90;;;;;;4995267;28;21006;-73
2021/01/26 08:22:54;;;;;;;7.13;4.55;;;-1.10;99.90;;;;;;5009314;28;20102;-74
2021/01/26 08:25:38;;;;;;;6.70;4.07;;;-1.10;99.90;;;;;;4992986;28;20141;-74
2021/01/26 08:28:10;;;;;;;8.07;4.27;;;-1.20;99.90;;;;;;4999925;28;20082;-74
2021/01/26 08:30:35;;;;;;;6.10;4.00;;;-1.10;99.90;;;;;;5000364;28;20481;-73
2021/01/26 08:33:06;;;;;;;7.25;4.63;;;-1.10;99.90;;;;;;5002508;28;20165;-74
2021/01/26 08:35:33;;;;;;;6.88;5.03;;;-1.10;99.90;;;;;;4994716;28;20459;-74
2021/01/26 08:38:00;;;;;;;6.17;3.70;;;-1.10;99.90;;;;;;4995474;28;20628;-72
2021/01/26 08:40:28;;;;;;;12.25;5.82;;;-1.10;99.90;;;;;;4998820;28;20093;-74
2021/01/26 08:42:59;;;;;;;9.07;4.75;;;-1.10;99.90;;;;;;4993890;28;20129;-73
2021/01/26 08:45:25;;;;;;;8.23;4.15;;;-1.00;99.90;;;;;;4993517;28;20133;-72
2021/01/26 08:48:02;;;;;;;6.82;4.50;;;-1.10;99.90;;;;;;4997843;28;20446;-71
2021/01/26 08:50:39;;;;;;;7.40;4.60;;;-1.10;99.90;;;;;;4999072;28;20078;-73
2021/01/26 08:53:23;;;;;;;8.88;4.45;;;-1.00;99.90;;;;;;5007794;28;20175;-72
2021/01/26 08:55:52;;;;;;;13.27;6.75;;;-1.00;99.90;;;;;;4995500;28;20214;-72
2021/01/26 08:58:40;;;;;;;5.88;3.90;;;-1.00;99.90;;;;;;5008624;28;20165;-72
2021/01/26 09:01:30;;;;;;;7.38;4.10;;;-0.90;99.90;;;;;;5004053;28;20101;-72
2021/01/26 09:04:16;;;;;;;6.13;4.25;;;-1.00;99.90;;;;;;4985636;28;20181;-72
2021/01/26 09:06:43;;;;;;;5.70;3.88;;;-1.00;99.90;;;;;;4983912;28;20083;-72
2021/01/26 09:09:19;;;;;;;10.48;5.00;;;-0.90;99.90;;;;;;4996200;28;20082;-72
2021/01/26 09:11:44;;;;;;;6.53;4.47;;;-1.00;99.90;;;;;;4995266;28;20549;-75
2021/01/26 09:14:44;;;;;;;5.87;4.00;;;-0.90;99.90;;;;;;5005693;28;20106;-73
2021/01/26 09:17:13;;;;;;;8.30;5.27;;;-0.90;99.90;;;;;;4995515;28;20089;-75
2021/01/26 09:19:48;;;;;;;8.43;5.07;;;-0.90;99.90;;;;;;5000548;28;20079;-74
2021/01/26 09:22:19;;;;;;;8.40;3.72;;;-0.90;99.90;;;;;;4997953;28;20090;-74
2021/01/26 09:24:47;;;;;;;11.75;4.25;;;-0.90;99.90;;;;;;4995968;28;20616;-74
2021/01/26 09:27:17;;;;;;;5.65;3.60;;;-0.90;99.90;;;;;;4990662;28;20083;-74
2021/01/26 09:29:43;;;;;;;6.30;4.28;;;-0.90;99.90;;;;;;4958804;28;20081;-75
2021/01/26 09:32:09;;;;;;;6.95;4.30;;;-0.90;99.90;;;;;;4997406;28;20067;-74
2021/01/26 09:34:35;;;;;;;7.03;4.43;;;-0.80;99.90;;;;;;4993216;28;20149;-79
2021/01/26 09:37:12;;;;;;;5.68;3.70;;;-0.90;99.90;;;;;;5009041;28;20493;-73
2021/01/26 09:39:38;;;;;;;6.10;3.90;;;-0.90;99.90;;;;;;4995240;28;20074;-72
2021/01/26 09:42:16;;;;;;;7.82;4.43;;;-0.80;99.90;;;;;;4994114;28;20094;-73
2021/01/26 09:44:59;;;;;;;9.73;4.57;;;-0.80;99.90;;;;;;4990836;28;20098;-72
2021/01/26 09:47:26;;;;;;;10.32;5.40;;;-0.70;99.90;;;;;;4993965;28;20153;-73
2021/01/26 09:50:00;;;;;;;8.70;4.10;;;-0.70;99.90;;;;;;5007515;28;20546;-73
2021/01/26 09:52:25;;;;;;;9.68;4.28;;;-0.60;99.90;;;;;;5007864;28;20086;-73
2021/01/26 09:55:00;;;;;;;9.32;4.55;;;-0.60;99.90;;;;;;4998175;28;20455;-72
2021/01/26 09:57:27;;;;;;;8.02;4.05;;;-0.50;99.90;;;;;;5000849;28;20458;-70
2021/01/26 09:59:53;;;;;;;5.90;4.00;;;-0.50;99.90;;;;;;4998400;28;20078;-73
2021/01/26 10:02:19;;;;;;;9.05;3.60;;;-0.50;99.90;;;;;;4999711;28;20082;-72
2021/01/26 10:04:46;;;;;;;7.53;3.78;;;-0.40;99.90;;;;;;5002159;28;20461;-74
2021/01/26 10:07:16;;;;;;;7.60;3.40;;;-0.40;99.90;;;;;;4999180;28;20074;-73
2021/01/26 10:09:42;;;;;;;6.95;4.10;;;-0.40;99.90;;;;;;4999369;28;21167;-73
2021/01/26 10:12:33;;;;;;;7.70;4.07;;;-0.40;99.90;;;;;;5005698;28;20067;-72
2021/01/26 10:15:09;;;;;;;6.72;3.13;;;-0.40;99.90;;;;;;4995518;28;20106;-73
2021/01/26 10:17:48;;;;;;;5.15;3.10;;;-0.40;99.90;;;;;;5000461;28;20165;-71
2021/01/26 10:20:27;;;;;;;13.90;5.85;;;-0.30;99.90;;;;;;4998743;28;20200;-73
2021/01/26 10:23:25;;;;;;;6.75;3.90;;;-0.30;99.90;;;;;;5004389;28;20518;-72
2021/01/26 10:25:52;;;;;;;9.38;5.00;;;-0.30;99.90;;;;;;5001188;28;20173;-73
2021/01/26 10:28:25;;;;;;;6.47;3.22;;;-0.20;99.90;;;;;;4999854;28;20074;-72
2021/01/26 10:30:52;;;;;;;5.03;3.70;;;-0.10;99.90;;;;;;4998168;28;20950;-71
2021/01/26 10:33:48;;;;;;;4.32;3.05;;;-0.20;99.90;;;;;;5005670;28;20066;-71
2021/01/26 10:36:26;;;;;;;7.97;3.80;;;-0.10;99.90;;;;;;4986277;28;20771;-72
2021/01/26 10:38:53;;;;;;;7.35;4.30;;;0.00;99.90;;;;;;4988464;28;20078;-72
2021/01/26 10:41:45;;;;;;;10.60;3.78;;;0.00;99.90;;;;;;4987253;28;20153;-72
2021/01/26 10:44:14;;;;;;;4.88;2.85;;;0.00;99.90;;;;;;4991740;28;20590;-73
2021/01/26 10:46:43;;;;;;;7.38;3.50;;;0.00;99.90;;;;;;4992214;28;20439;-72
2021/01/26 10:49:30;;;;;;;6.65;4.07;;;0.00;99.90;;;;;;5005597;28;20079;-73
2021/01/26 10:51:58;;;;;;;5.97;3.33;;;0.00;99.90;;;;;;4995324;28;20082;-73
2021/01/26 10:54:24;;;;;;;5.57;3.22;;;0.00;99.90;;;;;;4987347;28;20137;-73
2021/01/26 10:56:50;;;;;;;8.18;4.10;;;0.00;99.90;;;;;;4993765;28;20141;-73
2021/01/26 10:59:17;;;;;;;5.40;3.13;;;0.00;99.90;;;;;;4990473;28;20165;-72
2021/01/26 11:01:43;;;;;;;7.38;3.75;;;0.00;99.90;;;;;;4994416;28;20078;-72
2021/01/26 11:04:10;;;;;;;8.95;3.75;;;0.00;99.90;;;;;;4971390;28;20094;-71
2021/01/26 11:06:36;;;;;;;6.75;4.30;;;0.10;99.90;;;;;;4993592;28;20105;-72
2021/01/26 11:09:04;;;;;;;4.85;3.17;;;0.10;99.90;;;;;;4993824;28;20126;-73
2021/01/26 11:11:30;;;;;;;7.10;4.05;;;0.20;99.90;;;;;;4992072;28;20106;-72
2021/01/26 11:13:57;;;;;;;6.55;3.45;;;0.20;99.90;;;;;;4999670;28;20117;-72
2021/01/26 11:16:24;;;;;;;6.32;3.30;;;0.10;99.90;;;;;;4987793;28;20174;-73
2021/01/26 11:18:50;;;;;;;7.35;3.47;;;0.10;99.90;;;;;;4995460;28;20474;-72
2021/01/26 11:21:15;;;;;;;9.27;3.60;;;0.10;99.90;;;;;;4998409;28;20098;-73
2021/01/26 11:23:41;;;;;;;5.45;3.08;;;0.20;99.90;;;;;;4988468;28;20095;-74
2021/01/26 11:26:10;;;;;;;6.82;3.40;;;0.20;99.90;;;;;;4986674;28;20130;-73
2021/01/26 11:28:36;;;;;;;6.10;3.20;;;0.20;99.90;;;;;;4987853;28;20082;-73
2021/01/26 11:31:02;;;;;;;6.22;3.47;;;0.20;99.90;;;;;;4989217;28;20089;-73
2021/01/26 11:33:28;;;;;;;5.35;2.85;;;0.20;99.90;;;;;;4988045;28;20140;-72
2021/01/26 11:35:54;;;;;;;5.50;3.30;;;0.20;99.90;;;;;;4997202;28;20634;-75
2021/01/26 11:38:20;;;;;;;8.40;3.00;;;0.30;99.90;;;;;;4996897;28;20077;-72
2021/01/26 11:40:46;;;;;;;5.30;2.88;;;0.30;99.90;;;;;;5001819;28;20082;-73
2021/01/26 11:43:12;;;;;;;7.60;3.03;;;0.30;99.90;;;;;;4989690;28;20136;-73
2021/01/26 11:45:38;;;;;;;8.45;3.33;;;0.30;99.90;;;;;;4986073;28;20451;-73
2021/01/26 11:48:07;;;;;;;7.05;2.95;;;0.30;99.90;;;;;;4986264;28;20079;-71
2021/01/26 11:50:35;;;;;;;5.25;3.30;;;0.20;99.90;;;;;;5001417;28;20189;-72
2021/01/26 11:53:01;;;;;;;11.40;3.10;;;0.20;99.90;;;;;;5008129;28;20125;-73
2021/01/26 11:55:31;;;;;;;8.75;3.25;;;0.20;99.90;;;;;;4992218;28;20110;-73
2021/01/26 11:57:57;;;;;;;6.13;3.30;;;0.20;99.90;;;;;;4970892;28;20079;-73
2021/01/26 12:00:29;;;;;;;10.07;3.60;;;0.20;99.90;;;;;;4995642;28;20093;-73
2021/01/26 12:02:57;;;;;;;6.43;2.97;;;0.20;99.90;;;;;;4993608;28;20094;-73
2021/01/26 12:05:26;;;;;;;7.40;4.18;;;0.20;99.90;;;;;;4998069;28;20134;-73
2021/01/26 12:07:51;;;;;;;7.07;3.50;;;0.30;99.90;;;;;;5002674;28;20185;-73
2021/01/26 12:10:21;;;;;;;8.88;3.30;;;0.30;99.90;;;;;;5004351;28;20089;-74
2021/01/26 12:12:46;;;;;;;5.03;2.78;;;0.30;99.90;;;;;;5003345;28;20486;-73
2021/01/26 12:15:16;;;;;;;5.55;2.88;;;0.30;99.90;;;;;;5007102;28;20098;-72
2021/01/26 12:17:42;;;;;;;5.20;2.47;;;0.30;99.90;;;;;;4998656;28;20094;-74
2021/01/26 12:20:08;;;;;;;4.60;2.78;;;0.30;99.90;;;;;;4998625;28;20081;-74
2021/01/26 12:22:34;;;;;;;4.22;2.65;;;0.30;99.90;;;;;;5005312;28;20085;-73
2021/01/26 12:24:59;;;;;;;6.28;2.78;;;0.30;99.90;;;;;;4993082;28;20103;-73
2021/01/26 12:27:25;;;;;;;4.90;2.40;;;0.30;99.90;;;;;;5010489;28;20078;-71
2021/01/26 12:29:50;;;;;;;6.82;3.30;;;0.30;99.90;;;;;;4998902;28;20099;-75
2021/01/26 12:32:16;;;;;;;10.27;4.32;;;0.30;99.90;;;;;;5000516;28;20109;-75
2021/01/26 12:34:42;;;;;;;5.75;2.88;;;0.40;99.90;;;;;;4995716;28;20481;-75
2021/01/26 12:37:08;;;;;;;6.68;3.03;;;0.40;99.90;;;;;;4997109;28;20087;-73
2021/01/26 12:39:34;;;;;;;3.33;2.15;;;0.40;99.90;;;;;;4988076;28;20083;-74
2021/01/26 12:41:59;;;;;;;3.88;2.65;;;0.40;99.90;;;;;;4988602;28;20178;-74
2021/01/26 12:44:25;;;;;;;7.40;2.47;;;0.40;99.90;;;;;;4988755;28;20090;-75
2021/01/26 12:46:53;;;;;;;3.88;1.95;;;0.40;99.90;;;;;;4992130;28;20133;-78
2021/01/26 12:49:19;;;;;;;5.25;3.28;;;0.40;99.90;;;;;;5005461;28;20078;-75
2021/01/26 12:51:45;;;;;;;4.85;2.20;;;0.40;99.90;;;;;;5003222;28;20594;-75
2021/01/26 12:54:10;;;;;;;5.95;2.75;;;0.40;99.90;;;;;;5006634;28;20137;-75
2021/01/26 12:56:36;;;;;;;5.35;3.15;;;0.40;99.90;;;;;;4990019;28;20213;-74
2021/01/26 12:59:06;;;;;;;6.20;2.15;;;0.40;99.90;;;;;;4995016;28;20090;-75
2021/01/26 13:01:32;;;;;;;4.88;2.20;;;0.40;99.90;;;;;;4992679;28;20090;-76
2021/01/26 13:03:57;;;;;;;7.68;2.50;;;0.40;99.90;;;;;;4988510;28;20102;-73
2021/01/26 13:06:23;;;;;;;5.60;2.40;;;0.40;99.90;;;;;;5003363;28;20136;-76
2021/01/26 13:08:49;;;;;;;3.65;2.15;;;0.40;99.90;;;;;;4992765;28;20691;-74
2021/01/26 13:11:14;;;;;;;5.43;1.88;;;0.40;99.90;;;;;;4989033;28;22043;-74
2021/01/26 13:13:40;;;;;;;3.80;2.33;;;0.40;99.90;;;;;;4993758;28;20523;-74
2021/01/26 13:16:05;;;;;;;4.30;2.03;;;0.40;99.90;;;;;;4997230;28;20099;-74